logo
Rechercher aéroport 
image banner adimage banner adimage banner ad
image banner ad

SWQF - Miguel Dias Iii

Situé à Guaramiranga, Brazil

ICAO - SWQF, IATA -

Données fournies par Airmate  

Information générale

Coordonnées: S4°14'18" W38°58'53"
Élévation : 3051 feet MSL.
Variation magnétique : -20.947876658° East
Voir autres Aéroports à Ceará

Données opérationnelles

Special qualification required
Heure actuelle UTC:
Heure actuelle locale:
Météo à : SBFZ - Pinto Martins ( 72 km )
METAR: SBFZ 241900Z 10015KT 9999 FEW020 29/22 Q1012
TAF: TAF SBFZ 241615Z 2418/2518 14006KT 8000 BKN020 TN24/2509Z TX30/2518Z TEMPO 2418/2424 12015KT 6000 SCT020 FEW025TCU BECMG 2500/2502 16006KT BECMG 2512/2514 12006KT TEMPO 2514/2517 14015KT 6000 SCT020 FEW030TCU RMK PGW
Voir NOTAMs / SUP AIP / TFR affectant cet aéroport [VIEW]
Fréquences de communication: [VIEW]

Pistes:

Coordonnées de l'aéroport

Adresse: Guaramiranga Brazil

Vue satellite de SWQF